Riverton, Iowa
Current Conditions -  °F | °C
As of 5:15 AM on Thursday 18 Dec 2014 (Local Time) from KSDA Reporting Station
Light Snow Light Snow  
Wind Chill: 22°   Ceiling: 2300
Heat Index: 28°   Visibility: 2.5mi
Dew Point: 25°   Wind: 6mph
Humidity: 86%   Direction: 100°E
Pressure: 30.24"   Gusts: NA
Location:  40.69°N, 95.57°W
Report Text: KSDA 181115Z AUTO 10005KT 2 1/2SM -SN FEW004 BKN023 OVC039 M02/M04 A3024 RMK AO2
Loading
Personal Weather Stations






























Interactive Weather Map New forecast layout! Learn more

10-Day Weather Forecast

Advertisements
Track Severe Weather on mobile